createdAt,value
2017-06-27T00:00:24.480Z,26.53
2017-06-27T00:02:17.495Z,26.6
2017-06-27T00:04:33.629Z,26.68
2017-06-27T00:06:49.725Z,26.3
2017-06-27T00:09:14.213Z,26.64
2017-06-27T00:11:38.711Z,26.52
2017-06-27T00:14:03.302Z,26.82
2017-06-27T00:16:27.897Z,26.81
2017-06-27T00:18:29.482Z,26.82
2017-06-27T00:20:54.040Z,26.71
2017-06-27T00:23:18.639Z,26.71
2017-06-27T00:25:43.229Z,26.53
2017-06-27T00:27:59.325Z,26.82
2017-06-27T00:30:23.920Z,26.76
2017-06-27T00:32:40.011Z,26.67
2017-06-27T00:34:47.609Z,26.81
2017-06-27T00:37:12.202Z,26.81
2017-06-27T00:39:36.708Z,26.74
2017-06-27T00:42:02.213Z,26.55
2017-06-27T00:44:26.704Z,26.59
2017-06-27T00:46:51.291Z,26.7
2017-06-27T00:49:07.390Z,26.34
2017-06-27T00:51:23.487Z,26.34
2017-06-27T00:53:48.077Z,26.55
2017-06-27T00:56:04.172Z,26.64
2017-06-27T00:58:20.268Z,26.68
2017-06-27T01:00:19.467Z,26.68
2017-06-27T01:02:43.958Z,26.67
2017-06-27T01:05:08.449Z,26.51
2017-06-27T01:07:32.939Z,26.7
2017-06-27T01:09:49.061Z,26.64
2017-06-27T01:12:13.531Z,26.59
2017-06-27T01:14:38.122Z,26.51
2017-06-27T01:16:54.214Z,26.67
2017-06-27T01:19:18.808Z,26.59
2017-06-27T01:21:29.403Z,26.67
2017-06-27T01:23:53.970Z,26.46
2017-06-27T01:26:10.060Z,26.49
2017-06-27T01:28:34.654Z,26.6
2017-06-27T01:30:59.151Z,26.41
2017-06-27T01:33:23.644Z,26.6
2017-06-27T01:35:48.134Z,26.68
2017-06-27T01:38:12.625Z,26.71
2017-06-27T01:40:37.219Z,26.53
2017-06-27T01:42:44.828Z,26.51
2017-06-27T01:45:09.305Z,26.6
2017-06-27T01:47:25.397Z,26.61
2017-06-27T01:49:41.494Z,26.52
2017-06-27T01:52:06.087Z,26.66
2017-06-27T01:54:30.581Z,26.64
2017-06-27T01:56:32.047Z,26.67
2017-06-27T01:58:56.621Z,26.55
2017-06-27T02:01:21.115Z,26.1
2017-06-27T02:03:45.609Z,26.16
2017-06-27T02:06:01.702Z,26.03
2017-06-27T02:08:17.692Z,25.89
2017-06-27T02:10:42.186Z,25.68
2017-06-27T02:13:06.678Z,25.81
2017-06-27T02:15:31.171Z,25.67
2017-06-27T02:17:55.664Z,25.74
2017-06-27T02:20:20.153Z,25.41
2017-06-27T02:22:44.646Z,25.62
2017-06-27T02:25:09.142Z,25.58
2017-06-27T02:27:33.629Z,25.54
2017-06-27T02:29:58.121Z,25.36
2017-06-27T02:31:51.887Z,25.55
2017-06-27T02:34:16.383Z,25.22
2017-06-27T02:36:40.880Z,25.24
2017-06-27T02:39:05.363Z,25.22
2017-06-27T02:41:29.755Z,25.25
2017-06-27T02:43:45.744Z,25.18
2017-06-27T02:46:10.134Z,25.03
2017-06-27T02:48:34.527Z,25.09
2017-06-27T02:50:58.918Z,25.03
2017-06-27T02:53:23.408Z,24.94
2017-06-27T02:55:47.798Z,24.96
2017-06-27T02:58:12.178Z,25.15
2017-06-27T03:00:36.573Z,25.01
2017-06-27T03:02:52.567Z,25.03
2017-06-27T03:05:16.952Z,25.16
2017-06-27T03:07:41.348Z,25.22
2017-06-27T03:10:07.434Z,25.24
2017-06-27T03:11:43.351Z,25.22
2017-06-27T03:14:07.814Z,25.06
2017-06-27T03:16:32.306Z,24.96
2017-06-27T03:18:42.910Z,24.86
2017-06-27T03:21:07.365Z,24.75
2017-06-27T03:23:31.756Z,24.86
2017-06-27T03:25:56.143Z,25.04
2017-06-27T03:28:20.534Z,24.69
2017-06-27T03:30:36.421Z,25.04
2017-06-27T03:32:52.311Z,25.01
2017-06-27T03:35:16.701Z,25.21
2017-06-27T03:37:41.094Z,25.16
2017-06-27T03:39:57.095Z,25.01
2017-06-27T03:42:13.077Z,25.09
2017-06-27T03:44:23.069Z,25.04
2017-06-27T03:46:47.516Z,25.01
2017-06-27T03:49:11.909Z,25.03
2017-06-27T03:51:36.299Z,24.89
2017-06-27T03:53:37.745Z,25.01
2017-06-27T03:55:53.740Z,24.99
2017-06-27T03:58:03.712Z,25.11
2017-06-27T04:00:28.179Z,25.03
2017-06-27T04:02:44.172Z,24.84
2017-06-27T04:05:08.566Z,24.85
2017-06-27T04:07:32.851Z,24.79
2017-06-27T04:09:42.852Z,24.99
2017-06-27T04:12:07.293Z,24.86
2017-06-27T04:14:31.681Z,25.01
2017-06-27T04:16:39.174Z,25.06
2017-06-27T04:18:55.166Z,25.21
2017-06-27T04:21:19.549Z,25.24
2017-06-27T04:23:43.943Z,25.09
2017-06-27T04:26:08.333Z,25.03
2017-06-27T04:28:32.724Z,25.3
2017-06-27T04:30:34.166Z,25.3
2017-06-27T04:32:50.169Z,25.41
2017-06-27T04:34:57.654Z,24.94
2017-06-27T04:37:13.547Z,24.34
2017-06-27T04:39:37.940Z,23.95
2017-06-27T04:41:53.826Z,24.11
2017-06-27T04:44:18.216Z,23.81
2017-06-27T04:46:34.106Z,23.99
2017-06-27T04:48:58.499Z,24.22
2017-06-27T04:51:22.894Z,24.41
2017-06-27T04:53:47.272Z,24.22
2017-06-27T04:56:11.662Z,23.96
2017-06-27T04:58:04.654Z,24.26
2017-06-27T05:00:20.606Z,24.37
2017-06-27T05:02:44.997Z,24.47
2017-06-27T05:04:46.474Z,24.59
2017-06-27T05:07:10.939Z,24.31
2017-06-27T05:09:35.327Z,24.4
2017-06-27T05:11:59.717Z,24.43
2017-06-27T05:14:24.108Z,24.34
2017-06-27T05:16:39.993Z,24.29
2017-06-27T05:19:04.388Z,24.5
2017-06-27T05:21:14.465Z,24.63
2017-06-27T05:23:30.430Z,24.74
2017-06-27T05:25:54.820Z,24.71
2017-06-27T05:28:10.710Z,24.81
2017-06-27T05:30:26.599Z,24.97
2017-06-27T05:32:50.986Z,25.37
2017-06-27T05:35:15.377Z,25.46
2017-06-27T05:37:39.874Z,25.3
2017-06-27T05:40:04.361Z,25.85
2017-06-27T05:42:28.850Z,25.85
2017-06-27T05:44:53.351Z,25.86
2017-06-27T05:47:09.336Z,25.25
2017-06-27T05:49:33.831Z,24.82
2017-06-27T05:51:58.320Z,24.74
2017-06-27T05:54:22.707Z,25.29
2017-06-27T05:56:47.200Z,24.96
2017-06-27T05:59:03.193Z,24.78
2017-06-27T06:01:05.168Z,24.71
2017-06-27T06:03:21.144Z,25.19
2017-06-27T06:05:37.133Z,25.33
2017-06-27T06:08:01.631Z,25.36
2017-06-27T06:10:19.670Z,25.18
2017-06-27T06:12:35.665Z,24.09
2017-06-27T06:15:08.962Z,24.4
2017-06-27T06:19:01.032Z,24.71
2017-06-27T06:21:25.401Z,24.21
2017-06-27T06:23:49.778Z,24.47
2017-06-27T06:26:14.191Z,24.92
2017-06-27T06:28:38.667Z,25.62
2017-06-27T06:31:09.916Z,25.41
2017-06-27T06:33:36.358Z,25.81
2017-06-27T06:35:52.347Z,25.3
2017-06-27T06:39:52.996Z,25.36
2017-06-27T06:42:17.491Z,25.43
2017-06-27T06:44:41.999Z,25.71
2017-06-27T06:47:06.375Z,25.66
2017-06-27T06:49:30.859Z,25.91
2017-06-27T06:51:55.269Z,25.24
2017-06-27T06:54:20.769Z,25.01
2017-06-27T06:56:45.257Z,25.29
2017-06-27T06:59:10.773Z,25.77
2017-06-27T07:01:35.263Z,25.63
2017-06-27T07:03:59.768Z,25.99
2017-06-27T07:08:00.427Z,25.8
2017-06-27T07:11:58.003Z,26.74
2017-06-27T07:15:58.803Z,27
2017-06-27T07:21:27.442Z,26.93
2017-06-27T07:25:28.264Z,27.64
2017-06-27T07:29:29.136Z,28.22
2017-06-27T07:33:29.984Z,28.57
2017-06-27T07:37:30.924Z,29.39
2017-06-27T07:39:56.680Z,29.53
2017-06-27T07:42:04.589Z,30.65
2017-06-27T07:44:29.490Z,30.44
2017-06-27T07:46:45.993Z,31.77
2017-06-27T07:49:10.999Z,30.36
2017-06-27T07:51:36.054Z,31.44
2017-06-27T07:54:01.050Z,30.99
2017-06-27T07:56:11.666Z,30.16
2017-06-27T07:58:36.678Z,29.55
2017-06-27T08:00:53.177Z,29.76
2017-06-27T08:03:19.205Z,29.69
2017-06-27T08:05:44.211Z,29.67
2017-06-27T08:08:09.223Z,30.11
2017-06-27T08:10:34.216Z,31.42
2017-06-27T08:12:59.223Z,30.83
2017-06-27T08:15:24.223Z,31.42
2017-06-27T08:17:49.226Z,32.86
2017-06-27T08:20:14.334Z,33.85
2017-06-27T08:22:39.445Z,34.06
2017-06-27T08:25:04.647Z,36.63
2017-06-27T08:27:29.960Z,39.27
2017-06-27T08:29:06.364Z,40.86
2017-06-27T08:31:08.555Z,41.24
2017-06-27T08:33:34.211Z,40.32
2017-06-27T08:35:59.934Z,37.82
2017-06-27T08:38:17.154Z,36.55
2017-06-27T08:40:42.875Z,34.29
2017-06-27T08:43:08.489Z,35.26
2017-06-27T08:45:34.006Z,35.86
2017-06-27T08:48:00.548Z,35.16
2017-06-27T08:50:17.466Z,34.62
2017-06-27T08:52:25.875Z,34.18
2017-06-27T08:54:42.786Z,33.53
2017-06-27T08:57:08.200Z,31.97
2017-06-27T08:59:33.515Z,32.46
2017-06-27T09:01:58.820Z,32.46
2017-06-27T09:04:24.133Z,33.69
2017-06-27T09:06:34.878Z,33.4
2017-06-27T09:08:51.610Z,33.36
2017-06-27T09:11:16.798Z,33.39
2017-06-27T09:13:42.026Z,34.35
2017-06-27T09:16:07.237Z,33.4
2017-06-27T09:18:32.457Z,34.25
2017-06-27T09:20:57.757Z,34.76
2017-06-27T09:23:22.962Z,34.19
2017-06-27T09:25:39.673Z,33.44
2017-06-27T09:28:06.009Z,33.28
2017-06-27T09:30:31.320Z,34.02
2017-06-27T09:32:56.529Z,34.28
2017-06-27T09:35:13.240Z,34.16
2017-06-27T09:37:30.047Z,34.25
2017-06-27T09:39:55.257Z,34.29
2017-06-27T09:42:11.970Z,33.81
2017-06-27T09:44:37.174Z,33.54
2017-06-27T09:46:53.885Z,33.63
2017-06-27T09:49:18.991Z,33.77
2017-06-27T09:51:44.198Z,34.44
2017-06-27T09:54:09.319Z,34.35
2017-06-27T09:56:34.422Z,34.83
2017-06-27T09:58:59.606Z,35.13
2017-06-27T10:01:17.281Z,34.66
2017-06-27T10:03:42.458Z,34.04
2017-06-27T10:05:44.722Z,34.14
2017-06-27T10:08:01.398Z,33.7
2017-06-27T10:11:54.325Z,32.45
2017-06-27T10:14:19.501Z,32.46
2017-06-27T10:16:30.217Z,32.61
2017-06-27T10:18:46.869Z,32.72
2017-06-27T10:21:11.933Z,33.09
2017-06-27T10:23:36.996Z,33.4
2017-06-27T10:26:02.047Z,33.48
2017-06-27T10:28:27.193Z,32.83
2017-06-27T10:30:52.321Z,33.1
2017-06-27T10:33:17.530Z,33.69
2017-06-27T10:35:44.714Z,33.92
2017-06-27T10:38:11.794Z,34.75
2017-06-27T10:40:51.527Z,35.31
2017-06-27T10:43:23.559Z,35.49
2017-06-27T10:45:48.789Z,35.1
2017-06-27T10:48:05.542Z,35.39
2017-06-27T10:50:32.825Z,36.55
2017-06-27T10:52:58.155Z,36.72
2017-06-27T10:55:30.034Z,37.18
2017-06-27T10:57:32.240Z,36.45
2017-06-27T10:59:58.675Z,36.18
2017-06-27T11:02:24.006Z,36.06
2017-06-27T11:04:49.381Z,35.22
2017-06-27T11:07:15.696Z,35.91
2017-06-27T11:09:41.045Z,35.54
2017-06-27T11:11:57.839Z,34.21
2017-06-27T11:14:24.149Z,34.06
2017-06-27T11:16:49.420Z,34.51
2017-06-27T11:19:14.707Z,34.63
2017-06-27T11:21:40.027Z,34.41
2017-06-27T11:24:05.314Z,35.26
2017-06-27T11:26:30.608Z,35.72
2017-06-27T11:28:55.911Z,35.63
2017-06-27T11:31:22.197Z,35.18
2017-06-27T11:33:48.575Z,34.76
2017-06-27T11:36:13.893Z,34.59
2017-06-27T11:38:39.194Z,34.51
2017-06-27T11:41:06.501Z,34.07
2017-06-27T11:43:31.797Z,34.13
2017-06-27T11:45:57.095Z,33.2
2017-06-27T11:48:22.406Z,34.21
2017-06-27T11:50:47.734Z,34.98
2017-06-27T11:52:24.117Z,32.79
2017-06-27T11:54:36.890Z,33.28
2017-06-27T11:57:01.657Z,33.65
2017-06-27T11:59:26.922Z,32.88
2017-06-27T12:01:43.672Z,33.22
2017-06-27T12:04:09.909Z,33.32
2017-06-27T12:06:35.159Z,34.29
2017-06-27T12:09:00.429Z,34.79
2017-06-27T12:11:02.596Z,35.64
2017-06-27T12:13:27.882Z,35.61
2017-06-27T12:15:53.133Z,35.38
2017-06-27T12:18:18.410Z,34.91
2017-06-27T12:20:29.225Z,34.83
2017-06-27T12:22:54.525Z,34.32
2017-06-27T12:25:13.255Z,34
2017-06-27T12:27:29.992Z,34.32
2017-06-27T12:29:55.268Z,34.97
2017-06-27T12:32:20.494Z,34.21
2017-06-27T12:34:45.774Z,33.82
2017-06-27T12:37:11.053Z,34.26
2017-06-27T12:39:37.330Z,34.71
2017-06-27T12:42:03.561Z,35.19
2017-06-27T12:44:20.288Z,35
2017-06-27T12:46:45.557Z,34.91
2017-06-27T12:49:10.828Z,33.36
2017-06-27T12:51:36.133Z,33.69
2017-06-27T12:54:01.446Z,34.29
2017-06-27T12:56:18.200Z,34.53
2017-06-27T12:58:43.451Z,34.65
2017-06-27T13:00:45.645Z,34.46
2017-06-27T13:03:10.929Z,34.89
2017-06-27T13:05:36.183Z,34.56
2017-06-27T13:07:44.417Z,34.51
2017-06-27T13:10:09.644Z,34.82
2017-06-27T13:12:36.910Z,35.08
2017-06-27T13:14:53.699Z,35.07
2017-06-27T13:17:18.966Z,34.76
2017-06-27T13:19:44.173Z,35.01
2017-06-27T13:22:09.430Z,34.79
2017-06-27T13:24:35.666Z,34.76
2017-06-27T13:27:00.939Z,34.66
2017-06-27T13:29:26.206Z,34.19
2017-06-27T13:31:51.438Z,34.98
2017-06-27T13:34:16.668Z,35.13
2017-06-27T13:36:41.972Z,35.72
2017-06-27T13:38:58.726Z,35.71
2017-06-27T13:41:24.056Z,35.39
2017-06-27T13:43:49.373Z,35.88
2017-06-27T13:45:51.579Z,36.22
2017-06-27T13:47:53.767Z,35.98
2017-06-27T13:50:19.163Z,36.22
2017-06-27T13:52:36.032Z,35.9
2017-06-27T13:54:46.844Z,35.49
2017-06-27T13:57:03.711Z,34.24
2017-06-27T13:59:31.017Z,34.79
2017-06-27T14:01:56.283Z,35.22
2017-06-27T14:04:21.567Z,34.83
2017-06-27T14:06:48.812Z,34.63
2017-06-27T14:09:14.095Z,34.38
2017-06-27T14:11:40.332Z,34.85
2017-06-27T14:13:48.522Z,34.5
2017-06-27T14:16:13.705Z,34.65
2017-06-27T14:18:47.590Z,34.18
2017-06-27T14:21:19.089Z,34.66
2017-06-27T14:23:29.867Z,34.18
2017-06-27T14:25:55.144Z,34.48
2017-06-27T14:28:11.862Z,34.71
2017-06-27T14:30:37.048Z,34.71
2017-06-27T14:32:53.732Z,34.79
2017-06-27T14:35:18.988Z,34.43
2017-06-27T14:37:44.251Z,34.47
2017-06-27T14:40:09.577Z,34.19
2017-06-27T14:42:35.949Z,34.13
2017-06-27T14:45:01.362Z,34.11
2017-06-27T14:47:26.569Z,34.56
2017-06-27T14:49:43.276Z,34.48
2017-06-27T14:52:00.037Z,34.51
2017-06-27T14:54:25.302Z,34.47
2017-06-27T14:56:50.611Z,34.38
2017-06-27T14:59:16.835Z,33.94
2017-06-27T15:01:42.150Z,34
2017-06-27T15:04:07.975Z,33.87
2017-06-27T15:06:33.199Z,33.29
2017-06-27T15:08:58.328Z,33.04
2017-06-27T15:11:09.069Z,33.53
2017-06-27T15:13:34.266Z,33.35
2017-06-27T15:15:59.485Z,33.32
2017-06-27T15:18:24.682Z,33.72
2017-06-27T15:20:49.888Z,33.65
2017-06-27T15:22:52.080Z,34.29
2017-06-27T15:25:18.297Z,34.58
2017-06-27T15:27:43.502Z,34.1
2017-06-27T15:29:45.649Z,34.58
2017-06-27T15:31:47.776Z,34.86
2017-06-27T15:34:04.546Z,35.08
2017-06-27T15:36:29.858Z,35.49
2017-06-27T15:38:55.168Z,35.23
2017-06-27T15:41:11.981Z,35
2017-06-27T15:43:28.789Z,34.71
2017-06-27T15:45:54.121Z,35.19
2017-06-27T15:48:02.413Z,34.83
2017-06-27T15:50:04.564Z,34.66
2017-06-27T15:52:29.891Z,33.45
2017-06-27T15:54:55.202Z,34.44
2017-06-27T15:57:12.018Z,32.63
2017-06-27T15:59:37.328Z,33.55
2017-06-27T16:02:02.632Z,34.24
2017-06-27T16:04:19.341Z,33.63
2017-06-27T16:06:44.553Z,34.16
2017-06-27T16:09:09.770Z,33.84
2017-06-27T16:11:34.975Z,33.05
2017-06-27T16:14:00.177Z,33.5
2017-06-27T16:16:25.387Z,33.5
2017-06-27T16:18:50.596Z,33.6
2017-06-27T16:21:15.805Z,33.38
2017-06-27T16:23:41.012Z,32.78
2017-06-27T16:26:06.224Z,32.63
2017-06-27T16:28:22.930Z,32.83
2017-06-27T16:30:48.140Z,32.79
2017-06-27T16:33:13.246Z,32.24
2017-06-27T16:35:38.456Z,31.48
2017-06-27T16:38:03.571Z,30.7
2017-06-27T16:40:28.653Z,31.2
2017-06-27T16:42:53.780Z,31.39
2017-06-27T16:45:10.275Z,31.3
2017-06-27T16:47:35.412Z,31
2017-06-27T16:49:37.066Z,31.04
2017-06-27T16:52:02.143Z,31.37
2017-06-27T16:54:18.753Z,31.55
2017-06-27T16:56:35.969Z,30.92
2017-06-27T16:59:00.976Z,31.11
2017-06-27T17:01:25.984Z,31.52
2017-06-27T17:03:50.981Z,31.66
2017-06-27T17:06:07.489Z,31.35
2017-06-27T17:08:32.491Z,31
2017-06-27T17:11:13.369Z,30.27
2017-06-27T17:13:29.869Z,29.74
2017-06-27T17:15:32.051Z,30.16
2017-06-27T17:17:58.070Z,30.31
2017-06-27T17:20:23.073Z,30.49
2017-06-27T17:22:48.079Z,30.2
2017-06-27T17:25:12.975Z,30.11
2017-06-27T17:26:49.352Z,30.08
2017-06-27T17:29:14.351Z,30.36
2017-06-27T17:31:39.243Z,30.17
2017-06-27T17:34:04.137Z,29.98
2017-06-27T17:36:27.199Z,29.86
2017-06-27T17:38:43.706Z,29.94
2017-06-27T17:41:08.607Z,30.35
2017-06-27T17:43:33.506Z,30.33
2017-06-27T17:45:58.512Z,30.73
2017-06-27T17:48:23.402Z,30.06
2017-06-27T17:50:39.924Z,29.73
2017-06-27T17:53:04.823Z,29.83
2017-06-27T17:55:21.220Z,29.89
2017-06-27T17:57:23.278Z,29.86
2017-06-27T18:02:20.255Z,29.83
2017-06-27T18:04:45.087Z,29.79
2017-06-27T18:07:01.455Z,29.61
2017-06-27T18:09:17.790Z,29.71
2017-06-27T18:11:34.156Z,29.74
2017-06-27T18:13:59.018Z,29.27
2017-06-27T18:16:23.959Z,29.39
2017-06-27T18:17:59.837Z,29
2017-06-27T18:20:16.175Z,29.22
2017-06-27T18:22:41.013Z,29.4
2017-06-27T18:25:05.913Z,29.3
2017-06-27T18:27:16.558Z,29.71
2017-06-27T18:29:41.479Z,29.77
2017-06-27T18:32:06.280Z,29.55
2017-06-27T18:34:31.081Z,29.15
2017-06-27T18:36:55.874Z,28.86
2017-06-27T18:39:20.586Z,28.87
2017-06-27T18:41:45.375Z,28.92
2017-06-27T18:43:53.270Z,28.38
2017-06-27T18:47:54.233Z,27.93
2017-06-27T18:50:20.149Z,27.88
2017-06-27T18:52:44.952Z,28.01
2017-06-27T18:55:09.850Z,28.19
2017-06-27T18:56:46.217Z,27.93
2017-06-27T18:59:11.138Z,27.73
2017-06-27T19:01:36.250Z,27.86
2017-06-27T19:03:52.855Z,27.94
2017-06-27T19:06:03.745Z,27.88
2017-06-27T19:08:05.921Z,27.64
2017-06-27T19:10:30.931Z,27.63
2017-06-27T19:12:33.337Z,27.5
2017-06-27T19:14:35.532Z,27.63
2017-06-27T19:17:00.641Z,27.38
2017-06-27T19:18:37.111Z,27.4
2017-06-27T19:21:02.106Z,27.71
2017-06-27T19:23:27.111Z,27.52
2017-06-27T19:25:52.076Z,27.5
2017-06-27T19:28:17.327Z,26.92
2017-06-27T19:30:46.433Z,26.97
2017-06-27T19:32:48.685Z,26.83
2017-06-27T19:35:13.798Z,26.98
2017-06-27T19:39:15.111Z,26.82
2017-06-27T19:41:40.070Z,26.92
2017-06-27T19:44:07.274Z,26.67
2017-06-27T19:46:39.073Z,26.67
2017-06-27T19:49:12.228Z,26.81
2017-06-27T19:51:39.029Z,26.51
2017-06-27T19:53:55.524Z,26.85
2017-06-27T19:56:20.538Z,26.73
2017-06-27T19:58:45.661Z,26.55
2017-06-27T20:01:11.823Z,26.7
2017-06-27T20:03:37.334Z,26.96
2017-06-27T20:06:02.567Z,26.89
2017-06-27T20:08:27.939Z,26.51
2017-06-27T20:10:55.837Z,26.49
2017-06-27T20:13:20.992Z,26.64
2017-06-27T20:15:46.207Z,26.56
2017-06-27T20:18:11.591Z,26.71
2017-06-27T20:20:36.566Z,26.81
2017-06-27T20:22:12.817Z,26.63
2017-06-27T20:24:37.779Z,26.48
2017-06-27T20:26:54.849Z,26.82
2017-06-27T20:29:12.329Z,26.88
2017-06-27T20:31:37.776Z,26.93
2017-06-27T20:33:15.353Z,26.96
2017-06-27T20:35:25.741Z,26.74
2017-06-27T20:37:50.821Z,26.64
2017-06-27T20:40:15.690Z,26.85
2017-06-27T20:42:40.590Z,26.83
2017-06-27T20:45:05.382Z,26.73
2017-06-27T20:47:30.280Z,26.56
2017-06-27T20:49:54.967Z,26.52
2017-06-27T20:52:02.766Z,26.37
2017-06-27T20:54:27.369Z,26.44
2017-06-27T20:56:51.962Z,26.31
2017-06-27T20:59:16.449Z,26.59
2017-06-27T21:01:41.044Z,26.6
2017-06-27T21:04:05.642Z,26.67
2017-06-27T21:06:30.235Z,26.78
2017-06-27T21:08:54.831Z,26.82
2017-06-27T21:11:19.732Z,26.45
2017-06-27T21:15:20.511Z,26.78
2017-06-27T21:19:21.292Z,26.79
2017-06-27T21:23:22.094Z,26.46
2017-06-27T21:27:14.383Z,26.23
2017-06-27T21:31:15.193Z,26.71
2017-06-27T21:35:15.982Z,26.66
2017-06-27T21:39:16.774Z,26.52
2017-06-27T21:43:17.492Z,26.33
2017-06-27T21:44:53.820Z,26.27
2017-06-27T21:48:46.109Z,26.3
2017-06-27T21:52:46.783Z,26.18
2017-06-27T21:56:47.514Z,26.11
2017-06-27T22:00:48.197Z,25.8
2017-06-27T22:04:48.943Z,25.93
2017-06-27T22:08:49.622Z,25.89
2017-06-27T22:12:50.331Z,25.86
2017-06-27T22:16:51.021Z,25.83
2017-06-27T22:20:51.737Z,26.08
2017-06-27T22:24:52.470Z,25.96
2017-06-27T22:28:53.118Z,25.66
2017-06-27T22:32:53.768Z,25.76
2017-06-27T22:36:54.453Z,25.54
2017-06-27T22:40:46.613Z,25.24
2017-06-27T22:43:26.975Z,25.55
2017-06-27T22:47:27.626Z,25.51
2017-06-27T22:51:28.274Z,25.73
2017-06-27T22:53:38.849Z,25.74
2017-06-27T22:56:12.238Z,25.56
2017-06-27T22:58:14.178Z,25.73
2017-06-27T23:02:14.878Z,25.7
2017-06-27T23:06:15.528Z,25.66
2017-06-27T23:10:16.203Z,25.39
2017-06-27T23:14:16.337Z,25.25
2017-06-27T23:18:16.985Z,25.37
2017-06-27T23:22:17.616Z,25.19
2017-06-27T23:26:19.043Z,25.21
2017-06-27T23:28:20.997Z,25
2017-06-27T23:32:21.678Z,25.18
2017-06-27T23:37:50.050Z,24.75
2017-06-27T23:41:50.648Z,24.86
2017-06-27T23:45:51.237Z,24.68
2017-06-27T23:49:51.820Z,24.75
2017-06-27T23:53:52.426Z,24.92
2017-06-27T23:57:52.977Z,25.12
